DLH1561 UDYZ-EDDF
Flight info
| Callsign | DLH1561 |
|---|---|
| Flight time | N/A |
| Altitude | 32000 |
| Route | INDUR N161 ELTOX UB374 ERZ UL746 ODERO DCT OPT DCT ENIMA DCT TEGRI DCT ARSIN DCT SUBEN DCT AKINI T161 DEBHI DEBHI1B |
| Aircraft | A321/M-SDE3FGHIRWY/LB1 |
Departure
| Time | N/A |
|---|---|
| Airport | Zvartnots International Airport (UDYZ) |
Arrival
| Time | 2026-05-07 18:10 |
|---|---|
| Airport | Frankfurt Main Airport (EDDF) |
| Time | Latitude | Longitude | Altitude | Speed | Heading |
|---|---|---|---|---|---|
| 2026-05-07 17:22 | 47.99511 | 15.13589 | 31948 ft | 445 kts | 290° |
| 2026-05-07 17:23 | 48.01706 | 15.04963 | 31944 ft | 444 kts | 290° |
| 2026-05-07 17:23 | 48.03896 | 14.96333 | 31947 ft | 444 kts | 290° |
| 2026-05-07 17:24 | 48.06083 | 14.87711 | 31945 ft | 444 kts | 290° |
| 2026-05-07 17:24 | 48.08253 | 14.79076 | 31946 ft | 443 kts | 290° |
| 2026-05-07 17:25 | 48.10414 | 14.70437 | 31935 ft | 443 kts | 290° |
| 2026-05-07 17:25 | 48.12571 | 14.61801 | 31940 ft | 443 kts | 290° |
| 2026-05-07 17:26 | 48.14726 | 14.53165 | 31944 ft | 443 kts | 290° |
| 2026-05-07 17:26 | 48.16876 | 14.44525 | 31944 ft | 443 kts | 290° |
| 2026-05-07 17:27 | 48.19014 | 14.35868 | 31940 ft | 443 kts | 290° |
| 2026-05-07 17:27 | 48.21151 | 14.27217 | 31933 ft | 443 kts | 290° |
| 2026-05-07 17:28 | 48.23271 | 14.18547 | 31938 ft | 443 kts | 290° |
| 2026-05-07 17:28 | 48.25380 | 14.09880 | 31936 ft | 443 kts | 290° |
| 2026-05-07 17:29 | 48.27505 | 14.01206 | 31936 ft | 443 kts | 290° |
| 2026-05-07 17:29 | 48.29602 | 13.92534 | 31937 ft | 443 kts | 290° |
| 2026-05-07 17:30 | 48.31672 | 13.83967 | 31934 ft | 443 kts | 290° |
| 2026-05-07 17:30 | 48.33755 | 13.75294 | 31935 ft | 443 kts | 289° |
| 2026-05-07 17:31 | 48.35837 | 13.66579 | 31930 ft | 443 kts | 289° |
| 2026-05-07 17:31 | 48.37913 | 13.57846 | 31946 ft | 443 kts | 289° |
| 2026-05-07 17:32 | 48.39992 | 13.49115 | 31945 ft | 443 kts | 289° |
| 2026-05-07 17:32 | 48.41730 | 13.41798 | 31944 ft | 443 kts | 289° |
| 2026-05-07 17:33 | 48.44146 | 13.31649 | 31929 ft | 443 kts | 291° |
| 2026-05-07 17:33 | 48.46458 | 13.23036 | 31933 ft | 443 kts | 291° |
| 2026-05-07 17:34 | 48.48855 | 13.14483 | 31931 ft | 443 kts | 297° |
| 2026-05-07 17:34 | 48.51703 | 13.06238 | 31934 ft | 444 kts | 297° |
| 2026-05-07 17:35 | 48.54543 | 12.97956 | 31932 ft | 444 kts | 297° |
| 2026-05-07 17:35 | 48.57362 | 12.89670 | 31934 ft | 444 kts | 297° |
| 2026-05-07 17:36 | 48.60171 | 12.81371 | 31939 ft | 444 kts | 297° |
| 2026-05-07 17:36 | 48.62998 | 12.73022 | 31946 ft | 443 kts | 297° |
| 2026-05-07 17:37 | 48.65791 | 12.64708 | 31948 ft | 443 kts | 296° |
| 2026-05-07 17:37 | 48.68575 | 12.56406 | 31947 ft | 442 kts | 296° |
| 2026-05-07 17:38 | 48.71365 | 12.48115 | 31929 ft | 442 kts | 297° |
| 2026-05-07 17:38 | 48.74132 | 12.39805 | 31946 ft | 442 kts | 296° |
| 2026-05-07 17:39 | 48.76897 | 12.31471 | 31936 ft | 443 kts | 296° |
| 2026-05-07 17:39 | 48.79661 | 12.23134 | 31946 ft | 442 kts | 296° |
| 2026-05-07 17:40 | 48.82423 | 12.14787 | 31944 ft | 442 kts | 296° |
| 2026-05-07 17:40 | 48.85157 | 12.06494 | 31937 ft | 442 kts | 296° |
| 2026-05-07 17:41 | 48.87919 | 11.98086 | 31929 ft | 442 kts | 296° |
| 2026-05-07 17:41 | 48.90657 | 11.89718 | 31946 ft | 442 kts | 296° |
| 2026-05-07 17:42 | 48.93378 | 11.81344 | 31934 ft | 442 kts | 296° |
| 2026-05-07 17:42 | 48.95643 | 11.74383 | 31931 ft | 442 kts | 296° |
| 2026-05-07 17:43 | 48.98366 | 11.65995 | 31928 ft | 442 kts | 296° |
| 2026-05-07 17:43 | 49.01080 | 11.57592 | 31932 ft | 442 kts | 296° |
| 2026-05-07 17:44 | 49.03783 | 11.49178 | 31935 ft | 442 kts | 296° |
| 2026-05-07 17:44 | 49.06478 | 11.40747 | 31934 ft | 442 kts | 296° |
| 2026-05-07 17:45 | 49.09185 | 11.32317 | 31940 ft | 443 kts | 296° |
| 2026-05-07 17:45 | 49.11878 | 11.23880 | 31922 ft | 442 kts | 296° |
| 2026-05-07 17:46 | 49.13216 | 11.19688 | 31539 ft | 436 kts | 295° |
| 2026-05-07 17:46 | 49.14522 | 11.15543 | 31096 ft | 431 kts | 295° |
| 2026-05-07 17:46 | 49.15815 | 11.11443 | 30637 ft | 426 kts | 295° |
| 2026-05-07 17:46 | 49.17094 | 11.07390 | 30187 ft | 421 kts | 295° |
| 2026-05-07 17:47 | 49.18367 | 11.03383 | 29735 ft | 417 kts | 295° |
| 2026-05-07 17:47 | 49.19644 | 10.99342 | 29293 ft | 432 kts | 295° |
| 2026-05-07 17:47 | 49.20973 | 10.95113 | 28849 ft | 449 kts | 295° |
| 2026-05-07 17:47 | 49.22342 | 10.90790 | 28379 ft | 452 kts | 295° |
| 2026-05-07 17:48 | 49.23702 | 10.86463 | 27879 ft | 450 kts | 295° |
| 2026-05-07 17:48 | 49.25042 | 10.82154 | 27386 ft | 447 kts | 295° |
| 2026-05-07 17:48 | 49.26380 | 10.77873 | 26886 ft | 444 kts | 295° |
| 2026-05-07 17:48 | 49.27705 | 10.73630 | 26451 ft | 440 kts | 295° |
| 2026-05-07 17:49 | 49.29024 | 10.69400 | 26203 ft | 439 kts | 295° |
| 2026-05-07 17:49 | 49.30336 | 10.65190 | 25948 ft | 437 kts | 295° |
| 2026-05-07 17:49 | 49.31643 | 10.60988 | 25699 ft | 436 kts | 295° |
| 2026-05-07 17:49 | 49.32936 | 10.56795 | 25311 ft | 434 kts | 295° |
| 2026-05-07 17:50 | 49.34222 | 10.52632 | 24757 ft | 430 kts | 295° |
| 2026-05-07 17:50 | 49.35499 | 10.48511 | 24244 ft | 426 kts | 296° |
| 2026-05-07 17:50 | 49.37001 | 10.44616 | 23832 ft | 422 kts | 304° |
| 2026-05-07 17:50 | 49.38688 | 10.40922 | 23666 ft | 422 kts | 304° |
| 2026-05-07 17:51 | 49.40371 | 10.37244 | 23429 ft | 421 kts | 304° |
| 2026-05-07 17:51 | 49.42053 | 10.33568 | 23204 ft | 420 kts | 304° |
| 2026-05-07 17:51 | 49.43727 | 10.29891 | 22980 ft | 419 kts | 304° |
| 2026-05-07 17:51 | 49.45388 | 10.26237 | 22750 ft | 417 kts | 304° |
| 2026-05-07 17:52 | 49.47057 | 10.22559 | 22525 ft | 426 kts | 304° |
| 2026-05-07 17:52 | 49.48791 | 10.18740 | 22298 ft | 445 kts | 304° |
| 2026-05-07 17:52 | 49.50590 | 10.14777 | 22054 ft | 458 kts | 304° |
| 2026-05-07 17:52 | 49.52422 | 10.10744 | 21803 ft | 460 kts | 304° |
| 2026-05-07 17:53 | 49.54250 | 10.06710 | 21421 ft | 460 kts | 304° |
| 2026-05-07 17:53 | 49.56061 | 10.02680 | 20828 ft | 455 kts | 304° |
| 2026-05-07 17:53 | 49.57853 | 9.98678 | 20260 ft | 451 kts | 304° |
| 2026-05-07 17:53 | 49.59638 | 9.94718 | 19699 ft | 448 kts | 304° |
| 2026-05-07 17:54 | 49.61398 | 9.90786 | 19139 ft | 444 kts | 304° |
| 2026-05-07 17:54 | 49.63145 | 9.86883 | 18611 ft | 439 kts | 304° |
| 2026-05-07 17:54 | 49.64846 | 9.83104 | 18378 ft | 417 kts | 304° |
| 2026-05-07 17:54 | 49.66447 | 9.79530 | 17912 ft | 395 kts | 304° |
| 2026-05-07 17:55 | 49.67980 | 9.76090 | 17084 ft | 386 kts | 304° |
| 2026-05-07 17:55 | 49.69479 | 9.72721 | 16536 ft | 377 kts | 304° |
| 2026-05-07 17:55 | 49.70961 | 9.69378 | 16084 ft | 376 kts | 304° |
| 2026-05-07 17:55 | 49.72440 | 9.66057 | 15603 ft | 374 kts | 304° |
| 2026-05-07 17:56 | 49.73902 | 9.62757 | 15122 ft | 372 kts | 304° |
| 2026-05-07 17:56 | 49.75575 | 9.59741 | 14677 ft | 368 kts | 314° |
| 2026-05-07 17:56 | 49.77364 | 9.56930 | 14228 ft | 366 kts | 314° |
| 2026-05-07 17:56 | 49.79144 | 9.54136 | 13775 ft | 363 kts | 314° |
| 2026-05-07 17:57 | 49.80911 | 9.51360 | 13328 ft | 361 kts | 314° |
| 2026-05-07 17:57 | 49.82099 | 9.49493 | 13019 ft | 359 kts | 314° |
| 2026-05-07 17:57 | 49.84373 | 9.45917 | 12418 ft | 343 kts | 314° |
| 2026-05-07 17:57 | 49.86028 | 9.43316 | 12124 ft | 335 kts | 314° |
| 2026-05-07 17:58 | 49.87639 | 9.40784 | 11869 ft | 325 kts | 314° |
| 2026-05-07 17:58 | 49.89209 | 9.38316 | 11609 ft | 317 kts | 314° |
| 2026-05-07 17:58 | 49.90735 | 9.35915 | 11367 ft | 309 kts | 314° |
| 2026-05-07 17:58 | 49.92231 | 9.33563 | 11124 ft | 302 kts | 314° |
| 2026-05-07 17:59 | 49.93685 | 9.31275 | 10921 ft | 294 kts | 314° |
| 2026-05-07 17:59 | 49.95115 | 9.29026 | 10674 ft | 291 kts | 314° |
| 2026-05-07 17:59 | 49.96583 | 9.26883 | 10405 ft | 290 kts | 325° |
| 2026-05-07 17:59 | 49.98360 | 9.25408 | 9996 ft | 290 kts | 334° |
| 2026-05-07 18:00 | 50.00193 | 9.24063 | 9569 ft | 291 kts | 334° |
| 2026-05-07 18:00 | 50.02025 | 9.22720 | 9143 ft | 292 kts | 334° |
| 2026-05-07 18:00 | 50.03861 | 9.21374 | 8719 ft | 292 kts | 334° |
| 2026-05-07 18:00 | 50.05699 | 9.20025 | 8296 ft | 292 kts | 334° |
| 2026-05-07 18:01 | 50.07532 | 9.18681 | 7890 ft | 287 kts | 334° |
| 2026-05-07 18:01 | 50.09292 | 9.17389 | 7495 ft | 272 kts | 334° |
| 2026-05-07 18:01 | 50.10958 | 9.16170 | 7127 ft | 258 kts | 334° |
| 2026-05-07 18:01 | 50.12540 | 9.14997 | 6750 ft | 246 kts | 329° |
| 2026-05-07 18:02 | 50.14261 | 9.10750 | 6004 ft | 241 kts | 275° |
| 2026-05-07 18:02 | 50.14396 | 9.08134 | 5632 ft | 243 kts | 274° |
| 2026-05-07 18:02 | 50.14519 | 9.05532 | 5281 ft | 238 kts | 274° |
| 2026-05-07 18:03 | 50.14430 | 9.03004 | 5008 ft | 231 kts | 254° |
| 2026-05-07 18:03 | 50.13904 | 9.00658 | 4761 ft | 221 kts | 250° |
| 2026-05-07 18:03 | 50.13393 | 8.98458 | 4523 ft | 212 kts | 250° |
| 2026-05-07 18:03 | 50.12901 | 8.96343 | 4260 ft | 203 kts | 250° |
| 2026-05-07 18:04 | 50.12428 | 8.94323 | 4031 ft | 194 kts | 250° |
| 2026-05-07 18:04 | 50.11983 | 8.92425 | 3959 ft | 180 kts | 250° |
| 2026-05-07 18:04 | 50.11556 | 8.90605 | 3960 ft | 178 kts | 250° |
| 2026-05-07 18:04 | 50.11128 | 8.88782 | 3962 ft | 179 kts | 250° |
| 2026-05-07 18:05 | 50.10706 | 8.86974 | 3954 ft | 177 kts | 250° |
| 2026-05-07 18:05 | 50.10286 | 8.85172 | 3904 ft | 177 kts | 250° |
| 2026-05-07 18:05 | 50.09852 | 8.83375 | 3774 ft | 177 kts | 249° |
| 2026-05-07 18:05 | 50.09422 | 8.81609 | 3539 ft | 172 kts | 249° |
| 2026-05-07 18:06 | 50.08999 | 8.79861 | 3241 ft | 173 kts | 250° |
| 2026-05-07 18:06 | 50.08578 | 8.78076 | 2884 ft | 177 kts | 251° |
| 2026-05-07 18:06 | 50.08175 | 8.76252 | 2534 ft | 179 kts | 252° |
| 2026-05-07 18:06 | 50.07801 | 8.74419 | 2344 ft | 173 kts | 252° |
| 2026-05-07 18:07 | 50.07416 | 8.72703 | 2220 ft | 163 kts | 249° |
| 2026-05-07 18:07 | 50.07069 | 8.71049 | 2062 ft | 160 kts | 261° |
| 2026-05-07 18:07 | 50.06967 | 8.69326 | 1853 ft | 160 kts | 264° |
| 2026-05-07 18:07 | 50.06724 | 8.67675 | 1635 ft | 151 kts | 249° |
| 2026-05-07 18:08 | 50.06330 | 8.66225 | 1460 ft | 144 kts | 249° |
| 2026-05-07 18:08 | 50.05966 | 8.64741 | 1255 ft | 149 kts | 249° |
| 2026-05-07 18:08 | 50.05603 | 8.63227 | 1056 ft | 150 kts | 250° |
| 2026-05-07 18:08 | 50.05236 | 8.61708 | 832 ft | 150 kts | 249° |
| 2026-05-07 18:09 | 50.04874 | 8.60195 | 623 ft | 147 kts | 250° |
| 2026-05-07 18:09 | 50.04519 | 8.58717 | 416 ft | 144 kts | 249° |
| 2026-05-07 18:09 | 50.04191 | 8.57353 | 367 ft | 119 kts | 250° |
| 2026-05-07 18:09 | 50.03963 | 8.56393 | 356 ft | 70 kts | 250° |
| 2026-05-07 18:10 | 50.03885 | 8.55947 | 351 ft | 30 kts | 270° |
| 2026-05-07 18:10 | 50.03896 | 8.55764 | 355 ft | 7 kts | 279° |
| 2026-05-07 18:10 | 50.03904 | 8.55692 | 348 ft | 3 kts | 278° |
| 2026-05-07 18:10 | 50.03905 | 8.55683 | 348 ft | 0 kts | 278° |
| 2026-05-07 18:11 | 50.03907 | 8.55664 | 353 ft | 6 kts | 284° |
| 2026-05-07 18:11 | 50.03962 | 8.55637 | 351 ft | 13 kts | 24° |
| 2026-05-07 18:12 | 50.04009 | 8.55785 | 355 ft | 18 kts | 70° |
| 2026-05-07 18:12 | 50.04055 | 8.55982 | 355 ft | 20 kts | 69° |
| 2026-05-07 18:12 | 50.04104 | 8.56185 | 359 ft | 20 kts | 69° |
| 2026-05-07 18:12 | 50.04154 | 8.56393 | 358 ft | 21 kts | 69° |
| 2026-05-07 18:13 | 50.04204 | 8.56603 | 359 ft | 21 kts | 70° |
| 2026-05-07 18:13 | 50.04251 | 8.56776 | 366 ft | 16 kts | 50° |
| 2026-05-07 18:13 | 50.04352 | 8.56830 | 360 ft | 16 kts | 10° |
| 2026-05-07 18:13 | 50.04465 | 8.56859 | 359 ft | 17 kts | 10° |
| 2026-05-07 18:14 | 50.04577 | 8.56899 | 362 ft | 16 kts | 13° |
| 2026-05-07 18:14 | 50.04695 | 8.56964 | 360 ft | 16 kts | 24° |
| 2026-05-07 18:14 | 50.04720 | 8.57008 | 359 ft | 4 kts | 91° |
| 2026-05-07 18:14 | 50.04708 | 8.57060 | 359 ft | 5 kts | 114° |
| 2026-05-07 18:15 | 50.04698 | 8.57093 | 362 ft | 3 kts | 115° |
| 2026-05-07 18:15 | 50.04698 | 8.57094 | 362 ft | 0 kts | 115° |